< < Back
Terminal Aerodrome Forecast


Current Version              Previous Versions:   1  2  3  4  5  6  7  8  9  

Terminal Aerodrome Forecast

721
FTUS42 KCAE 302320
TAFCAE
TAF
KCAE 302320Z 3100/3124 VRB03KT P6SM SCT250
     FM311300 05006KT P6SM SCT035=

Latest METAR

270
SAUS80 KWBC 310200
MTRCAE
METAR KCAE 310156Z 10004KT 10SM SCT250 28/20 A3000 RMK AO2 SLP156
T02830200


USA.gov is the U.S. government's official web portal to all federal, state and local government web resources and services.